Time;durP1;ratioP1;P1;durP2;ratioP2;P2;SDS_P1;SDS_P2;PMS_P1;PMS_P2;Temp;Humidity;BMP_temperature;BMP_pressure;BME280_temperature;BME280_humidity;BME280_pressure;Samples;Min_cycle;Max_cycle;Signal;HPM_P1;HPM_P2
2021/11/01 00:00:35;;;;;;;;;5.00;2.00;;;;;11.32;71.08;99877.03;4966748;28;45628;-70
2021/11/01 00:03:01;;;;;;;;;5.33;2.33;;;;;11.32;71.10;99865.72;4968046;28;45619;-69
2021/11/01 00:05:27;;;;;;;;;2.33;1.67;;;;;11.31;71.04;99875.41;4965887;28;45565;-68
2021/11/01 00:07:53;;;;;;;;;4.33;1.33;;;;;11.29;71.08;99861.56;4956809;28;45573;-68
2021/11/01 00:10:19;;;;;;;;;1.00;1.00;;;;;11.30;71.41;99872.91;4956199;28;45334;-68
2021/11/01 00:12:44;;;;;;;;;4.00;2.00;;;;;11.29;71.05;99861.56;4966851;28;45356;-69
2021/11/01 00:15:11;;;;;;;;;5.33;1.00;;;;;11.28;71.36;99853.81;4985034;28;45513;-69
2021/11/01 00:17:37;;;;;;;;;3.33;2.00;;;;;11.28;71.13;99865.16;4972055;28;45543;-68
2021/11/01 00:20:06;;;;;;;;;4.00;2.00;;;;;11.28;71.26;99854.63;4971832;28;45569;-69
2021/11/01 00:22:33;;;;;;;;;4.00;1.00;;;;;11.27;71.10;99855.59;4956464;28;45353;-69
2021/11/01 00:25:00;;;;;;;;;4.00;1.67;;;;;11.26;71.10;99856.59;4961508;28;46072;-69
2021/11/01 00:27:25;;;;;;;;;1.00;1.00;;;;;11.26;70.98;99851.34;4963844;28;45643;-69
2021/11/01 00:29:52;;;;;;;;;3.67;1.00;;;;;11.16;70.85;99829.47;4963016;28;45474;-70
2021/11/01 00:32:17;;;;;;;;;5.00;2.00;;;;;11.26;70.85;99851.34;4971767;28;45563;-69
2021/11/01 00:34:43;;;;;;;;;2.67;1.00;;;;;11.26;70.88;99846.06;4965230;28;45949;-70
2021/11/01 00:37:09;;;;;;;;;5.33;2.67;;;;;11.25;71.45;99841.78;4958546;27;46531;-70
2021/11/01 00:39:35;;;;;;;;;3.00;2.00;;;;;11.22;71.32;99828.91;4967526;28;45387;-70
2021/11/01 00:42:01;;;;;;;;;1.67;1.67;;;;;11.22;71.52;99834.16;4967017;28;45546;-70
2021/11/01 00:44:26;;;;;;;;;4.00;2.00;;;;;11.20;70.95;99831.66;4961839;28;46152;-70
2021/11/01 00:46:52;;;;;;;;;3.00;1.33;;;;;11.18;71.46;99827.53;4969296;28;45419;-69
2021/11/01 00:49:17;;;;;;;;;5.00;3.00;;;;;11.18;71.09;99831.00;4965062;28;45592;-69
2021/11/01 00:51:43;;;;;;;;;2.00;1.33;;;;;11.16;71.15;99825.03;4961813;28;45351;-69
2021/11/01 00:54:12;;;;;;;;;1.33;1.00;;;;;11.14;71.59;99815.63;4962236;28;47293;-70
2021/11/01 00:56:37;;;;;;;;;1.00;1.00;;;;;11.15;71.49;99815.50;4966298;28;45626;-69
2021/11/01 00:59:03;;;;;;;;;4.67;0.67;;;;;11.17;70.95;99805.69;4961646;28;45444;-69
2021/11/01 01:01:31;;;;;;;;;2.00;1.00;;;;;11.16;71.64;99798.75;4964951;28;45507;-70
2021/11/01 01:03:57;;;;;;;;;3.00;1.00;;;;;11.14;71.41;99797.22;4965480;28;47506;-69
2021/11/01 01:06:22;;;;;;;;;2.33;1.67;;;;;11.17;71.31;99805.69;4979541;28;45442;-69
2021/11/01 01:08:48;;;;;;;;;2.67;1.67;;;;;11.17;71.01;99807.47;4968669;28;45565;-69
2021/11/01 01:11:13;;;;;;;;;2.67;1.33;;;;;11.14;70.78;99807.75;4961158;28;45404;-68
2021/11/01 01:13:39;;;;;;;;;4.67;2.00;;;;;11.15;70.81;99806.78;5030703;28;46083;-70
2021/11/01 01:18:36;;;;;;;;;3.33;3.00;;;;;11.16;71.00;99803.19;4960485;28;45419;-69
2021/11/01 01:22:11;;;;;;;;;1.33;1.00;;;;;11.15;70.78;99804.16;4969774;28;45557;-69
2021/11/01 01:23:48;;;;;;;;;4.00;3.00;;;;;11.16;71.25;99798.75;4967247;28;45631;-68
2021/11/01 01:26:15;;;;;;;;;5.33;3.33;;;;;11.17;71.35;99792.53;4971223;28;45512;-69
2021/11/01 01:28:42;;;;;;;;;0.67;0.67;;;;;11.18;71.27;99791.56;4959157;28;45459;-69
2021/11/01 01:31:07;;;;;;;;;4.33;1.33;;;;;11.19;71.27;99792.38;4956822;28;45456;-69
2021/11/01 01:33:33;;;;;;;;;4.33;0.67;;;;;11.20;70.79;99794.88;4963129;28;46840;-70
2021/11/01 01:35:59;;;;;;;;;1.00;1.00;;;;;11.21;71.18;99779.94;4966687;28;45664;-70
2021/11/01 01:38:26;;;;;;;;;3.33;1.00;;;;;11.23;71.23;99780.63;4960036;28;45734;-69
2021/11/01 01:40:53;;;;;;;;;4.67;1.00;;;;;11.27;71.24;99789.88;4962991;28;45433;-70
2021/11/01 01:43:19;;;;;;;;;8.67;2.00;;;;;11.29;70.66;99787.94;4968765;28;46165;-70
2021/11/01 01:45:45;;;;;;;;;1.67;1.33;;;;;11.29;70.79;99793.19;4963045;28;45333;-70
2021/11/01 01:48:11;;;;;;;;;3.00;1.33;;;;;11.32;71.25;99797.34;4979786;28;45616;-69
2021/11/01 01:50:36;;;;;;;;;2.00;1.00;;;;;11.32;70.49;99786.84;4955956;28;45724;-69
2021/11/01 01:53:02;;;;;;;;;5.00;1.67;;;;;11.31;70.25;99791.28;4956094;28;46278;-70
2021/11/01 01:55:27;;;;;;;;;2.33;2.00;;;;;11.21;70.60;99766.81;4960809;28;47822;-70
2021/11/01 01:57:53;;;;;;;;;2.00;1.00;;;;;11.33;70.36;99778.78;4967605;28;45404;-69
2021/11/01 02:03:01;;;;;;;;;3.00;2.00;;;;;11.31;70.40;99767.59;4965662;28;45871;-67
2021/11/01 02:05:37;;;;;;;;;1.67;1.00;;;;;11.32;70.22;99763.16;4964997;28;45459;-69
2021/11/01 02:08:09;;;;;;;;;4.67;1.00;;;;;11.30;70.36;99763.31;4968808;28;45523;-69
2021/11/01 02:10:42;;;;;;;;;2.33;1.00;;;;;11.30;70.29;99767.72;4965726;28;45485;-69
2021/11/01 02:13:31;;;;;;;;;1.00;1.00;;;;;11.28;70.67;99770.50;4970811;28;45589;-68
2021/11/01 02:15:59;;;;;;;;;2.00;2.00;;;;;11.26;70.44;99772.47;4967976;28;45438;-67
2021/11/01 02:18:30;;;;;;;;;3.00;2.00;;;;;11.25;70.44;99770.78;4963384;28;45561;-67
2021/11/01 02:20:59;;;;;;;;;1.00;0.33;;;;;11.16;70.33;99766.41;4960717;28;45519;-68
2021/11/01 02:23:30;;;;;;;;;5.00;2.00;;;;;11.08;70.79;99759.22;4965990;28;45473;-69
2021/11/01 02:25:58;;;;;;;;;2.67;1.00;;;;;10.99;70.70;99755.63;4956044;28;45527;-69
2021/11/01 02:28:34;;;;;;;;;5.00;1.00;;;;;10.92;71.04;99759.75;4967980;28;45477;-71
2021/11/01 02:31:01;;;;;;;;;1.00;1.00;;;;;10.82;71.07;99749.28;4959711;28;45302;-68
2021/11/01 02:33:27;;;;;;;;;4.67;1.00;;;;;10.80;71.59;99755.66;4959263;28;47045;-69
2021/11/01 02:35:54;;;;;;;;;6.00;1.67;;;;;10.77;72.13;99756.75;4957748;28;45577;-68
2021/11/01 02:38:23;;;;;;;;;3.00;1.00;;;;;10.78;72.21;99758.41;4958414;28;45363;-68
2021/11/01 02:40:49;;;;;;;;;3.33;0.00;;;;;10.83;71.52;99761.44;4969267;28;45422;-68
2021/11/01 02:43:16;;;;;;;;;3.00;1.00;;;;;10.82;71.56;99753.69;4970650;28;47203;-69
2021/11/01 02:45:43;;;;;;;;;1.00;1.00;;;;;10.85;71.73;99756.06;4970306;28;45512;-68
2021/11/01 02:48:09;;;;;;;;;3.00;0.67;;;;;10.93;71.86;99765.88;4970310;28;45262;-68
2021/11/01 02:50:35;;;;;;;;;3.00;0.33;;;;;10.87;71.68;99761.97;4969127;28;45321;-68
2021/11/01 02:53:01;;;;;;;;;1.00;1.00;;;;;10.83;71.37;99771.97;4970663;28;46196;-69
2021/11/01 02:55:27;;;;;;;;;1.00;1.00;;;;;10.77;71.53;99771.66;4973313;28;45539;-68
2021/11/01 02:57:53;;;;;;;;;1.67;1.67;;;;;10.78;72.43;99774.19;4971666;28;45447;-70
2021/11/01 03:00:24;;;;;;;;;2.00;0.00;;;;;10.82;71.56;99764.19;4974580;28;45408;-71
2021/11/01 03:02:51;;;;;;;;;2.00;0.00;;;;;10.85;71.80;99763.94;4975566;28;47286;-71
2021/11/01 03:05:19;;;;;;;;;2.33;0.00;;;;;10.90;71.43;99764.34;4970238;28;45435;-68
2021/11/01 03:07:47;;;;;;;;;2.33;0.00;;;;;10.92;71.18;99762.38;4970351;28;45425;-68
2021/11/01 03:10:15;;;;;;;;;2.00;1.00;;;;;11.04;71.91;99763.91;4972227;28;45445;-68
2021/11/01 03:12:44;;;;;;;;;2.67;1.00;;;;;11.16;71.39;99754.06;4968709;28;46423;-69
2021/11/01 03:15:20;;;;;;;;;3.33;0.00;;;;;11.27;70.88;99762.75;4968742;28;45449;-68
2021/11/01 03:17:48;;;;;;;;;2.33;1.67;;;;;11.35;70.39;99760.25;4970087;28;45750;-68
2021/11/01 03:20:26;;;;;;;;;2.00;1.00;;;;;11.40;70.04;99758.00;4976493;28;45258;-68
2021/11/01 03:22:55;;;;;;;;;1.33;1.00;;;;;11.45;68.76;99765.50;4962369;28;46251;-68
2021/11/01 03:25:29;;;;;;;;;1.00;0.00;;;;;11.42;69.77;99771.88;4967653;28;45382;-69
2021/11/01 03:27:57;;;;;;;;;0.00;0.00;;;;;11.39;69.06;99778.22;4970520;28;45486;-67
2021/11/01 03:30:24;;;;;;;;;1.00;1.00;;;;;11.36;69.45;99775.06;4969644;28;47895;-66
2021/11/01 03:32:50;;;;;;;;;3.00;2.00;;;;;11.32;70.05;99771.88;4980398;28;47075;-67
2021/11/01 03:35:18;;;;;;;;;2.33;0.67;;;;;11.30;69.48;99768.56;4969257;28;45357;-68
2021/11/01 03:37:45;;;;;;;;;2.00;1.00;;;;;11.30;69.47;99781.72;4982720;28;45362;-67
2021/11/01 03:40:16;;;;;;;;;4.33;0.00;;;;;11.28;69.17;99781.03;4974319;28;45415;-67
2021/11/01 03:42:43;;;;;;;;;1.00;1.00;;;;;11.23;69.55;99783.25;4972717;28;45209;-67
2021/11/01 03:45:10;;;;;;;;;4.33;1.00;;;;;11.20;69.54;99794.88;4972448;28;45421;-65
2021/11/01 03:47:39;;;;;;;;;0.00;0.00;;;;;11.15;69.32;99791.84;4971805;28;45525;-66
2021/11/01 03:50:16;;;;;;;;;1.33;1.00;;;;;11.10;69.98;99798.50;4970274;28;45281;-65
2021/11/01 03:52:44;;;;;;;;;4.67;1.00;;;;;11.04;69.94;99784.94;4972501;28;45413;-69
2021/11/01 03:55:09;;;;;;;;;2.00;1.00;;;;;11.04;70.25;99792.81;4972914;28;45433;-77
2021/11/01 03:57:35;;;;;;;;;0.00;0.00;;;;;10.95;70.48;99793.66;4977514;28;45432;-70
2021/11/01 04:00:05;;;;;;;;;3.00;2.00;;;;;10.99;70.15;99792.41;4971095;28;45438;-68
2021/11/01 04:02:30;;;;;;;;;2.00;2.00;;;;;10.98;70.71;99800.44;4972512;28;46157;-81
2021/11/01 04:04:56;;;;;;;;;4.00;1.00;;;;;10.95;70.84;99792.81;4972585;28;45488;-78
2021/11/01 04:07:22;;;;;;;;;0.67;0.67;;;;;10.90;71.03;99793.25;4973365;28;45451;-76
2021/11/01 04:09:47;;;;;;;;;4.67;1.00;;;;;10.95;70.36;99790.19;4970754;28;45418;-77
2021/11/01 04:12:14;;;;;;;;;0.33;0.00;;;;;10.89;70.07;99791.59;4970046;28;45992;-77
2021/11/01 04:14:44;;;;;;;;;5.00;1.00;;;;;10.86;70.32;99802.38;4972031;28;45337;-75
2021/11/01 04:17:19;;;;;;;;;0.33;0.33;;;;;10.80;70.38;99797.69;4972296;28;45367;-78
2021/11/01 04:19:56;;;;;;;;;2.00;1.00;;;;;10.72;70.34;99812.31;4972043;28;45507;-76
2021/11/01 04:22:23;;;;;;;;;2.00;0.00;;;;;10.62;70.47;99816.72;4970252;28;47140;-78
2021/11/01 04:24:49;;;;;;;;;1.67;1.00;;;;;10.54;71.02;99812.16;4970824;28;45748;-76
2021/11/01 04:27:15;;;;;;;;;1.33;1.00;;;;;10.53;71.15;99810.50;4971884;28;45253;-77
2021/11/01 04:29:40;;;;;;;;;3.67;1.00;;;;;10.52;71.17;99810.63;4971471;28;45410;-73
2021/11/01 04:32:41;;;;;;;;;0.67;0.00;;;;;10.58;71.35;99804.84;4970842;28;45875;-77
2021/11/01 04:35:08;;;;;;;;;6.00;0.00;;;;;10.77;70.85;99816.31;4971700;28;45618;-78
2021/11/01 04:37:34;;;;;;;;;0.33;0.33;;;;;10.92;70.70;99822.81;4972213;28;45351;-77
2021/11/01 04:43:02;;;;;;;;;2.33;0.33;;;;;11.13;69.76;99824.47;4974604;28;45486;-78
2021/11/01 04:53:40;;;;;;;;;3.67;1.00;;;;;11.38;69.05;99815.19;4965264;28;45363;-77
2021/11/01 04:56:05;;;;;;;;;1.00;1.00;;;;;11.41;68.23;99806.19;4972192;28;45327;-78
2021/11/01 04:58:32;;;;;;;;;2.67;0.00;;;;;11.45;68.36;99807.56;4973732;28;45581;-77
2021/11/01 05:00:57;;;;;;;;;1.00;1.00;;;;;11.49;68.31;99816.81;4973813;28;45700;-80
2021/11/01 05:03:36;;;;;;;;;2.00;0.00;;;;;11.52;68.14;99813.91;4971194;28;46291;-80
2021/11/01 05:06:01;;;;;;;;;1.00;0.00;;;;;11.54;68.24;99811.97;4971134;28;45529;-79
2021/11/01 05:08:35;;;;;;;;;0.33;0.00;;;;;11.52;68.07;99806.00;4975251;28;45394;-79
2021/11/01 05:11:05;;;;;;;;;3.00;0.00;;;;;11.54;68.29;99806.72;4979104;28;45382;-81
2021/11/01 05:13:33;;;;;;;;;4.00;1.67;;;;;11.55;67.60;99809.19;4974194;28;46463;-79
2021/11/01 05:19:00;;;;;;;;;2.00;0.00;;;;;11.56;67.75;99802.16;5032287;28;45359;-78
2021/11/01 05:23:56;;;;;;;;;4.00;0.33;;;;;11.58;68.25;99797.56;5031592;28;46039;-79
2021/11/01 05:26:54;;;;;;;;;1.00;1.00;;;;;11.62;68.17;99798.09;5032746;28;45668;-79
2021/11/01 05:29:20;;;;;;;;;1.00;0.00;;;;;11.64;68.48;99817.22;5031652;28;45529;-79
2021/11/01 05:31:56;;;;;;;;;0.00;0.00;;;;;11.66;68.34;99816.09;5045319;28;45564;-79
2021/11/01 05:34:22;;;;;;;;;0.00;0.00;;;;;11.70;68.44;99822.72;5013938;28;47166;-79
2021/11/01 05:36:47;;;;;;;;;0.00;0.00;;;;;11.71;67.93;99819.13;5031449;28;45486;-77
2021/11/01 05:39:13;;;;;;;;;1.00;0.00;;;;;11.71;68.19;99816.50;5016261;28;45583;-77
2021/11/01 05:41:39;;;;;;;;;0.00;0.00;;;;;11.81;68.23;99816.44;5039936;28;45430;-78
2021/11/01 05:44:05;;;;;;;;;1.00;1.00;;;;;11.83;67.78;99829.44;5047289;28;46231;-79
2021/11/01 05:46:43;;;;;;;;;1.00;0.33;;;;;11.84;67.88;99817.97;5033488;28;45440;-78
2021/11/01 05:49:09;;;;;;;;;1.33;0.33;;;;;11.89;67.70;99826.25;5034578;28;45528;-78
2021/11/01 05:51:36;;;;;;;;;1.00;1.00;;;;;11.92;67.82;99835.66;5031019;28;45771;-76
2021/11/01 05:54:07;;;;;;;;;2.33;0.33;;;;;11.94;67.53;99825.84;5030121;28;46943;-75
2021/11/01 06:04:46;;;;;;;;;3.33;1.00;;;;;12.03;67.55;99827.63;4973914;28;45320;-76
2021/11/01 06:15:06;;;;;;;;;3.00;1.00;;;;;12.02;67.48;99836.47;5035363;28;45540;-77
2021/11/01 06:17:32;;;;;;;;;4.67;0.00;;;;;11.99;67.63;99848.13;5018395;28;45464;-76
2021/11/01 06:19:58;;;;;;;;;0.00;0.00;;;;;11.96;67.78;99840.53;5034743;28;45580;-79
2021/11/01 06:22:25;;;;;;;;;0.67;0.00;;;;;11.95;67.43;99852.03;5036692;28;45298;-74
2021/11/01 06:24:52;;;;;;;;;2.00;0.00;;;;;11.94;67.56;99845.06;5036753;28;46397;-78
2021/11/01 06:27:19;;;;;;;;;1.33;0.00;;;;;11.94;67.16;99858.22;5017069;28;45482;-75
2021/11/01 06:51:11;;;;;;;;;12.33;10.00;;;;;12.88;69.25;99849.28;4971879;28;45551;-73
2021/11/01 07:15:39;;;;;;;;;2.00;2.00;;;;;14.18;65.28;99848.72;5057045;28;45355;-75
2021/11/01 07:20:52;;;;;;;;;2.00;2.00;;;;;14.42;64.16;99858.53;5058144;28;45561;-77
2021/11/01 08:20:46;;;;;;;;;2.00;0.33;;;;;14.11;62.43;99900.50;4973922;28;45243;-76
2021/11/01 08:23:40;;;;;;;;;1.33;1.00;;;;;14.01;63.71;99896.16;4971228;28;46226;-74
2021/11/01 08:28:59;;;;;;;;;0.00;0.00;;;;;14.34;62.80;99893.66;4972615;28;45616;-74
2021/11/01 08:42:24;;;;;;;;;1.67;1.00;;;;;14.26;61.95;99895.44;5054770;28;45459;-74
2021/11/01 08:47:50;;;;;;;;;1.67;0.00;;;;;14.09;62.62;99902.47;5054527;28;45486;-74
2021/11/01 08:50:36;;;;;;;;;0.00;0.00;;;;;14.10;62.66;99904.13;5053841;28;45429;-74
2021/11/01 09:01:45;;;;;;;;;4.00;0.00;;;;;14.25;63.56;99894.63;5052911;28;45538;-76
2021/11/01 09:27:05;;;;;;;;;0.00;0.00;;;;;15.06;60.25;99891.59;4971378;28;45349;-75
2021/11/01 09:38:10;;;;;;;;;1.00;0.00;;;;;14.60;60.88;99878.75;5037741;28;45367;-74
2021/11/01 09:43:20;;;;;;;;;0.00;0.00;;;;;14.37;60.66;99874.03;5013174;28;45472;-74
2021/11/01 09:45:46;;;;;;;;;1.33;0.00;;;;;14.25;61.50;99862.94;5030621;28;45512;-73
2021/11/01 09:48:13;;;;;;;;;0.00;0.00;;;;;14.32;61.81;99879.81;5030253;28;45592;-75
2021/11/01 09:50:38;;;;;;;;;0.33;0.00;;;;;14.45;61.55;99881.16;5030829;28;45301;-77
2021/11/01 09:53:23;;;;;;;;;1.00;0.00;;;;;14.55;60.37;99884.50;5034315;28;45573;-75
2021/11/01 10:01:25;;;;;;;;;0.33;0.00;;;;;15.05;60.61;99887.28;5036274;28;45584;-74
2021/11/01 10:03:52;;;;;;;;;1.00;0.00;;;;;14.98;60.40;99885.31;5031558;28;45485;-74
2021/11/01 10:06:21;;;;;;;;;1.00;0.00;;;;;15.15;60.38;99874.72;5031577;28;45530;-74
2021/11/01 10:08:51;;;;;;;;;1.00;0.00;;;;;15.33;59.12;99882.50;4960165;28;46174;-78
2021/11/01 10:11:20;;;;;;;;;1.00;1.00;;;;;15.32;58.85;99880.84;4936413;28;45476;-76
2021/11/01 10:13:58;;;;;;;;;0.00;0.00;;;;;15.23;59.18;99881.84;4944068;28;45577;-73
2021/11/01 10:19:30;;;;;;;;;1.00;0.00;;;;;15.26;57.27;99885.00;4932855;28;45394;-79
2021/11/01 10:21:59;;;;;;;;;0.00;0.00;;;;;15.17;58.67;99872.75;4946887;28;45362;-76
2021/11/01 10:24:40;;;;;;;;;1.00;0.00;;;;;15.23;58.56;99881.84;4943319;28;45446;-75
2021/11/01 10:27:26;;;;;;;;;2.67;0.00;;;;;15.16;58.53;99876.38;4939036;28;45501;-74
2021/11/01 10:29:55;;;;;;;;;1.33;0.33;;;;;15.04;57.76;99881.19;4940184;28;45369;-75
2021/11/01 10:32:27;;;;;;;;;0.67;0.33;;;;;15.00;58.99;99875.38;4944652;28;45496;-75
2021/11/01 10:35:10;;;;;;;;;1.33;0.00;;;;;15.08;57.75;99879.03;4940723;28;45315;-75
2021/11/01 10:37:36;;;;;;;;;1.00;0.67;;;;;15.29;59.29;99867.97;4970703;28;45271;-74
2021/11/01 10:40:07;;;;;;;;;4.00;1.33;;;;;15.49;57.83;99876.38;4975541;28;45565;-75
2021/11/01 10:42:42;;;;;;;;;2.33;0.00;;;;;15.50;57.81;99872.72;4972164;28;45403;-75
2021/11/01 11:13:05;;;;;;;;;1.00;1.00;;;;;15.28;56.42;99840.69;4991638;28;45311;-74
2021/11/01 11:15:33;;;;;;;;;1.33;1.00;;;;;15.40;57.01;99835.03;4991334;28;45509;-75
2021/11/01 11:29:17;;;;;;;;;2.67;0.00;;;;;15.88;54.78;99843.91;5019263;28;45481;-75
2021/11/01 11:40:41;;;;;;;;;0.00;0.00;;;;;15.89;54.49;99840.25;4970770;28;45483;-76
2021/11/01 11:49:16;;;;;;;;;1.00;0.00;;;;;16.13;53.81;99835.88;4971817;28;45358;-73
2021/11/01 11:52:12;;;;;;;;;0.00;0.00;;;;;16.13;53.84;99830.59;4969094;28;45415;-75
2021/11/01 11:54:42;;;;;;;;;2.00;0.00;;;;;16.25;53.82;99831.03;4981374;28;45704;-74
2021/11/01 11:57:19;;;;;;;;;0.00;0.00;;;;;16.33;52.33;99826.53;4970652;28;46726;-76
2021/11/01 11:59:48;;;;;;;;;1.00;0.00;;;;;16.36;53.25;99824.50;4973173;28;45428;-72
2021/11/01 12:02:15;;;;;;;;;3.00;0.00;;;;;16.32;52.05;99829.31;4973638;28;45521;-78
2021/11/01 12:04:48;;;;;;;;;0.00;0.00;;;;;16.20;52.59;99826.22;4973238;28;45490;-74
2021/11/01 12:07:16;;;;;;;;;1.00;0.00;;;;;16.21;52.51;99830.53;4975194;28;45597;-76
2021/11/01 12:10:02;;;;;;;;;0.00;0.00;;;;;16.12;51.38;99823.63;4973796;28;45340;-73
2021/11/01 12:17:48;;;;;;;;;0.00;0.00;;;;;15.77;53.09;99821.22;4972617;28;45700;-75
2021/11/01 12:20:14;;;;;;;;;0.67;0.00;;;;;15.89;52.85;99826.19;4979558;28;45656;-75
2021/11/01 12:22:43;;;;;;;;;0.00;0.00;;;;;15.83;51.57;99822.41;4976691;28;45527;-74
2021/11/01 12:25:13;;;;;;;;;2.00;0.67;;;;;15.70;52.48;99819.44;4985207;28;45419;-76
2021/11/01 12:27:43;;;;;;;;;0.00;0.00;;;;;15.67;53.58;99810.84;4973295;28;45502;-74
2021/11/01 12:30:10;;;;;;;;;0.00;0.00;;;;;15.69;53.31;99813.31;4972016;28;45467;-75
2021/11/01 12:32:37;;;;;;;;;0.33;0.00;;;;;15.66;51.73;99809.19;4973219;28;45502;-76
2021/11/01 12:35:21;;;;;;;;;2.33;1.00;;;;;15.47;52.07;99804.28;4972680;28;45485;-75
2021/11/01 12:38:02;;;;;;;;;1.00;0.00;;;;;15.44;53.22;99801.94;4972056;28;45573;-73
2021/11/01 12:40:52;;;;;;;;;0.00;0.00;;;;;15.48;53.87;99798.00;4970605;28;45458;-75
2021/11/01 12:59:47;;;;;;;;;0.33;0.00;;;;;16.23;53.09;99767.63;4949507;28;45432;-74
2021/11/01 13:02:26;;;;;;;;;2.33;0.00;;;;;16.21;52.65;99769.59;4923982;28;45485;-72
2021/11/01 13:04:53;;;;;;;;;1.00;1.00;;;;;16.13;52.90;99767.00;4950619;28;45536;-71
2021/11/01 13:10:13;;;;;;;;;0.33;0.33;;;;;15.91;53.44;99766.75;4948463;28;46059;-72
2021/11/01 13:13:16;;;;;;;;;2.00;0.00;;;;;15.89;53.31;99760.00;4947379;28;45442;-70
2021/11/01 13:18:16;;;;;;;;;1.00;1.00;;;;;15.96;52.54;99753.84;4952392;28;45659;-76
2021/11/01 13:20:52;;;;;;;;;2.00;0.67;;;;;15.95;53.38;99743.41;4950307;28;45525;-72
2021/11/01 13:23:18;;;;;;;;;3.00;1.67;;;;;15.88;53.01;99740.63;4924461;28;45500;-71
2021/11/01 13:28:36;;;;;;;;;2.00;1.00;;;;;15.97;54.67;99726.34;4960919;28;45544;-68
2021/11/01 13:36:46;;;;;;;;;5.67;2.00;;;;;16.07;54.63;99734.06;4971071;28;45459;-71
2021/11/01 13:39:25;;;;;;;;;5.00;1.00;;;;;16.20;54.39;99728.19;4970808;28;45581;-72
2021/11/01 13:41:51;;;;;;;;;0.67;0.67;;;;;16.32;53.83;99739.22;4971617;28;46654;-72
2021/11/01 13:44:25;;;;;;;;;0.67;0.00;;;;;16.38;54.48;99732.41;4970837;28;45404;-68
2021/11/01 13:47:03;;;;;;;;;1.33;0.00;;;;;16.45;52.77;99739.47;4970871;28;45236;-70
2021/11/01 13:49:33;;;;;;;;;1.00;1.00;;;;;16.49;53.55;99746.06;4985267;28;45595;-70
2021/11/01 13:52:15;;;;;;;;;1.33;1.00;;;;;16.44;53.16;99726.41;4972912;28;45387;-71
2021/11/01 13:54:57;;;;;;;;;0.33;0.33;;;;;16.54;54.57;99727.00;4970863;28;45496;-72
2021/11/01 13:57:22;;;;;;;;;1.00;1.00;;;;;16.69;54.14;99723.56;4969862;28;45416;-76
2021/11/01 14:13:36;;;;;;;;;3.00;1.00;;;;;16.69;53.47;99721.72;5012347;28;45816;-78
2021/11/01 14:18:48;;;;;;;;;1.00;1.00;;;;;16.61;53.66;99727.94;5009110;28;45413;-73
2021/11/01 14:27:10;;;;;;;;;1.33;0.00;;;;;15.76;55.55;99777.22;5010056;28;45444;-68
2021/11/01 14:29:46;;;;;;;;;0.00;0.00;;;;;15.16;57.57;99760.00;5009607;28;45531;-69
2021/11/01 14:35:10;;;;;;;;;2.00;1.00;;;;;14.21;60.04;99755.94;5011406;28;45808;-79
2021/11/01 14:57:51;;;;;;;;;0.00;0.00;;;;;12.93;62.36;99761.84;4970147;28;45512;-77
2021/11/01 15:20:27;;;;;;;;;0.00;0.00;;;;;12.42;64.23;99789.72;4972357;28;45567;-77
2021/11/01 16:19:12;;;;;;;;;1.00;1.00;;;;;12.23;64.10;99770.41;4975140;28;45390;-79
2021/11/01 16:21:37;;;;;;;;;1.33;1.00;;;;;12.19;64.25;99764.59;4973367;28;46336;-78
2021/11/01 16:24:02;;;;;;;;;1.00;1.00;;;;;12.18;64.58;99762.97;4975083;27;45442;-78
2021/11/01 16:26:30;;;;;;;;;0.00;0.00;;;;;12.09;64.51;99760.38;4973511;28;45376;-79
2021/11/01 16:29:13;;;;;;;;;1.00;1.00;;;;;12.01;64.51;99761.97;4974005;28;45499;-79
2021/11/01 16:34:12;;;;;;;;;1.00;0.00;;;;;11.88;65.24;99764.06;4974577;28;45352;-78
2021/11/01 16:39:30;;;;;;;;;2.00;1.33;;;;;11.75;65.56;99771.47;4974512;28;45408;-79
2021/11/01 16:41:58;;;;;;;;;1.00;1.00;;;;;11.67;65.91;99769.56;4980925;28;47079;-80
2021/11/01 16:44:27;;;;;;;;;2.33;1.00;;;;;11.61;66.09;99765.72;4974299;28;45304;-78
2021/11/01 16:46:55;;;;;;;;;1.00;1.00;;;;;11.55;66.30;99763.66;4982033;28;45304;-79
2021/11/01 16:49:21;;;;;;;;;3.00;2.00;;;;;11.52;66.29;99774.44;4983456;28;45763;-80
2021/11/01 16:51:55;;;;;;;;;4.00;3.00;;;;;11.49;66.96;99780.00;4980826;28;46206;-78
2021/11/01 16:54:26;;;;;;;;;6.33;4.67;;;;;11.42;66.52;99786.78;4973204;28;45484;-79
2021/11/01 16:59:46;;;;;;;;;4.00;2.67;;;;;11.35;66.56;99787.38;4981302;28;45371;-79
2021/11/01 17:04:46;;;;;;;;;2.67;2.00;;;;;11.28;67.04;99801.22;4978906;28;45462;-78
2021/11/01 17:21:39;;;;;;;;;8.33;5.00;;;;;11.17;67.74;99802.19;5029716;28;45299;-79
2021/11/01 17:24:15;;;;;;;;;14.67;13.00;;;;;11.14;68.46;99795.41;5021699;28;45380;-79
2021/11/01 17:35:17;;;;;;;;;21.67;16.67;;;;;11.10;68.26;99799.31;5023205;28;46007;-80
2021/11/01 18:41:24;;;;;;;;;29.67;18.00;;;;;10.37;70.61;99860.09;4971602;28;45524;-66
2021/11/01 18:50:46;;;;;;;;;28.25;25.50;;;;;10.27;70.79;99860.00;4972440;28;45555;-66
2021/11/01 18:52:10;;;;;;;;;24.33;21.67;;;;;10.15;71.44;99855.84;4970560;28;45927;-66
2021/11/01 18:54:41;;;;;;;;;20.67;17.67;;;;;10.10;71.35;99852.78;4970198;28;45343;-75
2021/11/01 18:57:08;;;;;;;;;22.67;20.33;;;;;10.08;71.75;99861.59;4970060;28;45258;-73
2021/11/01 18:59:39;;;;;;;;;22.00;20.00;;;;;10.06;71.75;99850.41;4971215;28;45232;-75
2021/11/01 19:04:44;;;;;;;;;21.00;20.00;;;;;10.01;71.69;99854.38;4971026;28;45274;-72
2021/11/01 21:25:46;;;;;;;;;16.33;14.00;;;;;9.66;73.15;99817.09;4975476;28;45561;-74
2021/11/01 21:28:11;;;;;;;;;17.33;15.00;;;;;9.71;72.88;99817.53;4974320;28;45401;-75
2021/11/01 21:30:37;;;;;;;;;9.33;6.33;;;;;9.77;73.00;99810.09;4966490;28;45415;-72
2021/11/01 21:33:02;;;;;;;;;19.00;16.33;;;;;9.81;72.73;99816.72;4969902;28;45373;-74
2021/11/01 21:35:30;;;;;;;;;17.33;12.67;;;;;9.84;72.66;99819.94;4985695;28;45928;-74
2021/11/01 21:37:58;;;;;;;;;18.00;15.67;;;;;9.90;72.60;99826.47;4956343;28;45507;-74
2021/11/01 21:40:24;;;;;;;;;20.33;16.33;;;;;9.90;72.78;99813.34;4969990;28;45393;-75
2021/11/01 21:42:52;;;;;;;;;15.67;15.33;;;;;9.95;72.70;99811.16;4976029;28;45658;-73
2021/11/01 21:45:17;;;;;;;;;15.33;11.00;;;;;9.98;72.91;99803.00;4978438;28;46238;-75
2021/11/01 21:47:43;;;;;;;;;14.67;13.67;;;;;10.01;72.44;99810.59;4978569;28;45226;-74
2021/11/01 21:50:08;;;;;;;;;18.33;16.33;;;;;10.03;72.45;99808.69;4976882;28;45710;-75
2021/11/01 21:52:35;;;;;;;;;15.33;11.67;;;;;10.04;72.71;99802.50;4977686;28;45470;-76
2021/11/01 21:55:01;;;;;;;;;15.00;10.67;;;;;10.08;72.65;99803.06;4979923;28;46084;-74
2021/11/01 21:57:44;;;;;;;;;13.33;12.67;;;;;10.09;72.22;99799.44;4974218;28;45557;-73
2021/11/01 22:21:49;;;;;;;;;14.00;12.00;;;;;10.14;71.54;99768.38;4972233;28;45381;-75
2021/11/01 22:40:47;;;;;;;;;5.00;4.00;;;;;10.06;71.94;99763.81;4862932;28;45396;-75
2021/11/01 22:43:30;;;;;;;;;11.00;10.33;;;;;10.08;71.89;99761.88;4859745;29;45714;-73
2021/11/01 22:46:12;;;;;;;;;9.33;7.67;;;;;10.08;71.89;99755.81;4864895;28;45324;-73
2021/11/01 22:56:35;;;;;;;;;11.67;9.67;;;;;10.12;71.88;99748.50;4867806;28;45609;-74
2021/11/01 22:59:02;;;;;;;;;12.00;9.67;;;;;10.13;71.91;99755.41;4846314;28;46328;-73
2021/11/01 23:01:35;;;;;;;;;7.33;7.33;;;;;10.14;71.84;99751.81;4859196;28;45429;-74
2021/11/01 23:33:53;;;;;;;;;8.67;8.33;;;;;10.05;71.73;99730.69;4878835;29;45453;-73
2021/11/01 23:36:19;;;;;;;;;11.33;9.00;;;;;10.03;72.24;99740.47;4877386;29;45352;-74
2021/11/01 23:38:44;;;;;;;;;11.33;7.67;;;;;10.01;72.06;99738.94;4872753;28;45557;-73
2021/11/01 23:41:10;;;;;;;;;10.33;8.33;;;;;10.01;71.91;99731.91;4875335;29;45482;-73
2021/11/01 23:43:35;;;;;;;;;7.33;7.00;;;;;10.01;72.18;99731.06;4944336;28;45389;-75
2021/11/01 23:46:01;;;;;;;;;7.67;6.33;;;;;10.00;72.23;99717.13;4951590;28;45541;-75
2021/11/01 23:48:26;;;;;;;;;7.67;6.67;;;;;10.03;72.14;99727.34;4950735;28;45488;-75
2021/11/01 23:50:52;;;;;;;;;8.67;6.00;;;;;10.03;72.34;99727.34;4950443;28;45892;-74
2021/11/01 23:56:03;;;;;;;;;11.67;4.33;;;;;10.03;72.92;99719.47;4937384;28;45636;-75
2021/11/01 23:58:29;;;;;;;;;8.00;6.33;;;;;10.08;72.72;99719.09;4971813;28;45377;-74
